Time;durP1;ratioP1;P1;durP2;ratioP2;P2;SDS_P1;SDS_P2;PMS_P1;PMS_P2;Temp;Humidity;BMP_temperature;BMP_pressure;BME280_temperature;BME280_humidity;BME280_pressure;Samples;Min_cycle;Max_cycle;Signal;HPM_P1;HPM_P2
2023/10/08 00:01:42;;;;;;;6.82;2.90;;;19.10;57.20;;;;;;5020236;28;20575;-32
2023/10/08 00:04:18;;;;;;;6.15;3.30;;;19.10;57.20;;;;;;5008468;28;20224;-32
2023/10/08 00:06:49;;;;;;;5.00;2.90;;;19.10;57.10;;;;;;5010743;28;20205;-32
2023/10/08 00:09:20;;;;;;;7.07;3.50;;;19.10;57.20;;;;;;5029026;28;20205;-33
2023/10/08 00:11:53;;;;;;;6.97;3.35;;;19.10;57.20;;;;;;5025252;28;20286;-32
2023/10/08 00:14:21;;;;;;;5.47;3.20;;;19.00;57.10;;;;;;5013938;28;20249;-32
2023/10/08 00:16:49;;;;;;;7.82;3.20;;;19.00;57.10;;;;;;5013249;28;20201;-32
2023/10/08 00:19:19;;;;;;;6.03;2.90;;;19.00;57.20;;;;;;5026449;28;21121;-32
2023/10/08 00:21:48;;;;;;;5.78;3.08;;;19.00;57.10;;;;;;5026524;28;20691;-32
2023/10/08 00:24:26;;;;;;;9.18;3.08;;;18.90;57.10;;;;;;5018954;28;20224;-32
2023/10/08 00:26:54;;;;;;;5.78;2.63;;;18.90;57.10;;;;;;5008383;28;20927;-32
2023/10/08 00:29:24;;;;;;;6.80;3.38;;;18.90;57.10;;;;;;5025327;28;20733;-32
2023/10/08 00:31:56;;;;;;;5.47;3.05;;;18.90;57.10;;;;;;5014254;28;20257;-32
2023/10/08 00:34:27;;;;;;;8.60;3.47;;;18.90;57.10;;;;;;5009501;28;20747;-32
2023/10/08 00:36:55;;;;;;;6.22;3.33;;;18.80;57.00;;;;;;5008454;28;20218;-33
2023/10/08 00:39:25;;;;;;;8.57;3.17;;;18.80;57.00;;;;;;5024482;28;20701;-32
2023/10/08 00:41:58;;;;;;;10.23;3.22;;;18.80;57.00;;;;;;5011633;28;20229;-32
2023/10/08 00:44:29;;;;;;;5.88;3.40;;;18.80;57.10;;;;;;5008493;28;20217;-33
2023/10/08 00:47:01;;;;;;;5.30;3.08;;;18.70;57.00;;;;;;5018534;28;20206;-32
2023/10/08 00:54:57;;;;;;;5.88;3.40;;;18.60;57.00;;;;;;5007470;28;20230;-32
2023/10/08 00:57:28;;;;;;;6.18;3.05;;;18.60;57.00;;;;;;5016605;28;20915;-32
2023/10/08 00:59:59;;;;;;;7.10;3.42;;;18.60;57.00;;;;;;5013464;28;20202;-32
2023/10/08 01:02:44;;;;;;;5.63;3.33;;;18.50;57.00;;;;;;5010854;28;20237;-32
2023/10/08 01:05:24;;;;;;;5.13;3.20;;;18.50;57.00;;;;;;5010821;28;20197;-32
2023/10/08 01:07:59;;;;;;;7.82;3.10;;;18.50;57.00;;;;;;5012511;28;20211;-32
2023/10/08 01:10:29;;;;;;;5.53;3.20;;;18.40;57.00;;;;;;5015413;28;20212;-32
2023/10/08 01:15:30;;;;;;;6.85;3.47;;;18.40;57.00;;;;;;5011519;28;20723;-32
2023/10/08 01:18:00;;;;;;;5.50;3.00;;;18.40;57.00;;;;;;5022681;28;20200;-32
2023/10/08 01:20:34;;;;;;;5.35;3.50;;;18.30;57.00;;;;;;5007149;28;20272;-32
2023/10/08 01:23:16;;;;;;;6.43;3.33;;;18.30;57.00;;;;;;5023507;28;20214;-32
2023/10/08 01:25:50;;;;;;;5.15;2.88;;;18.30;57.00;;;;;;5007081;28;20193;-32
2023/10/08 01:28:31;;;;;;;5.65;3.53;;;18.20;57.00;;;;;;5010207;28;20583;-32
2023/10/08 01:31:04;;;;;;;6.68;3.10;;;18.20;57.00;;;;;;5009959;28;20214;-32
2023/10/08 01:33:37;;;;;;;5.72;3.03;;;18.20;57.10;;;;;;5006859;28;20228;-32
2023/10/08 01:36:12;;;;;;;5.97;3.58;;;18.20;57.10;;;;;;5007905;28;20778;-32
2023/10/08 01:38:42;;;;;;;7.28;3.42;;;18.20;57.10;;;;;;5008245;28;20219;-32
2023/10/08 01:41:18;;;;;;;6.97;3.53;;;18.10;57.10;;;;;;5017751;28;20227;-32
2023/10/08 01:43:47;;;;;;;5.47;3.03;;;18.10;57.10;;;;;;5007716;28;20305;-32
2023/10/08 01:46:15;;;;;;;5.60;3.55;;;18.10;57.10;;;;;;5007443;28;20249;-32
2023/10/08 01:48:44;;;;;;;8.13;3.53;;;18.00;57.00;;;;;;5007033;28;20300;-32
2023/10/08 01:51:24;;;;;;;6.43;3.53;;;18.00;57.10;;;;;;5011965;28;20251;-32
2023/10/08 01:53:57;;;;;;;5.82;3.20;;;18.00;57.10;;;;;;5009513;28;20643;-32
2023/10/08 01:56:25;;;;;;;6.30;3.60;;;18.00;57.10;;;;;;5020642;28;20208;-32
2023/10/08 01:58:55;;;;;;;7.28;3.42;;;17.90;57.10;;;;;;5022359;28;20212;-32
2023/10/08 02:01:24;;;;;;;6.32;3.00;;;17.90;57.10;;;;;;5015198;28;20233;-32
2023/10/08 02:03:52;;;;;;;6.78;3.67;;;17.90;57.10;;;;;;5007268;28;20236;-32
2023/10/08 02:06:21;;;;;;;6.15;3.65;;;17.90;57.10;;;;;;5019309;28;20193;-32
2023/10/08 02:08:51;;;;;;;6.47;3.42;;;17.90;57.20;;;;;;5007462;28;20305;-32
2023/10/08 02:11:23;;;;;;;6.15;3.25;;;17.90;57.20;;;;;;5007258;28;20295;-32
2023/10/08 02:13:53;;;;;;;5.72;3.38;;;17.80;57.20;;;;;;5024544;28;20212;-32
2023/10/08 02:16:25;;;;;;;4.88;3.08;;;17.80;57.20;;;;;;5008225;28;20225;-32
2023/10/08 02:18:55;;;;;;;6.50;3.75;;;17.80;57.20;;;;;;5020014;28;20233;-32
2023/10/08 02:21:23;;;;;;;5.00;3.08;;;17.80;57.30;;;;;;5015065;28;20243;-31
2023/10/08 02:23:52;;;;;;;6.07;3.38;;;17.80;57.30;;;;;;5011551;28;20197;-32
2023/10/08 02:26:19;;;;;;;7.85;3.65;;;17.80;57.30;;;;;;5028830;28;20194;-31
2023/10/08 02:28:46;;;;;;;5.72;3.25;;;17.80;57.30;;;;;;5008384;28;20596;-31
2023/10/08 02:31:18;;;;;;;5.63;2.92;;;17.80;57.30;;;;;;5024053;28;20287;-31
2023/10/08 02:33:47;;;;;;;7.90;3.17;;;17.80;57.30;;;;;;5019772;28;20194;-31
2023/10/08 02:36:16;;;;;;;5.45;3.30;;;17.80;57.30;;;;;;5009788;28;20205;-31
2023/10/08 02:38:43;;;;;;;6.57;3.42;;;17.80;57.30;;;;;;5010553;28;20220;-32
2023/10/08 02:41:16;;;;;;;5.97;3.45;;;17.80;57.40;;;;;;5010303;28;20220;-32
2023/10/08 02:43:45;;;;;;;7.13;3.47;;;17.80;57.40;;;;;;5009449;28;20214;-32
2023/10/08 02:46:15;;;;;;;8.52;3.60;;;17.80;57.40;;;;;;5023286;28;20577;-32
2023/10/08 02:48:47;;;;;;;6.90;3.65;;;17.80;57.40;;;;;;5030087;28;20240;-31
2023/10/08 02:51:20;;;;;;;5.30;3.00;;;17.80;57.40;;;;;;5028473;28;20201;-31
2023/10/08 02:53:50;;;;;;;7.07;3.20;;;17.80;58.10;;;;;;5024873;28;20237;-31
2023/10/08 02:56:21;;;;;;;7.07;3.47;;;17.80;57.50;;;;;;5014612;28;20579;-32
2023/10/08 02:58:54;;;;;;;7.15;3.03;;;17.80;57.50;;;;;;5020059;28;20239;-31
2023/10/08 03:01:21;;;;;;;7.07;4.00;;;17.70;57.40;;;;;;5011806;28;20241;-31
2023/10/08 03:03:49;;;;;;;7.45;3.50;;;17.70;57.40;;;;;;5009339;28;20586;-31
2023/10/08 03:06:23;;;;;;;6.40;3.70;;;17.70;57.50;;;;;;5017991;28;20742;-31
2023/10/08 03:08:51;;;;;;;7.75;4.00;;;17.70;57.50;;;;;;5022771;28;20672;-31
2023/10/08 03:11:25;;;;;;;7.20;3.78;;;17.70;57.50;;;;;;5027987;28;20223;-31
2023/10/08 03:13:56;;;;;;;6.80;3.15;;;17.70;57.50;;;;;;5018941;28;20309;-31
2023/10/08 03:16:34;;;;;;;5.90;3.40;;;17.70;57.50;;;;;;5010089;28;20300;-31
2023/10/08 03:19:03;;;;;;;4.47;3.50;;;17.70;57.50;;;;;;5013954;28;20240;-31
2023/10/08 03:27:05;;;;;;;7.95;3.42;;;17.70;57.60;;;;;;5014103;28;20205;-31
2023/10/08 03:29:40;;;;;;;5.38;3.38;;;17.70;57.60;;;;;;5023171;28;20209;-31
2023/10/08 03:32:13;;;;;;;7.50;3.60;;;17.70;57.70;;;;;;5010270;28;20217;-31
2023/10/08 03:34:47;;;;;;;7.00;3.72;;;17.70;57.70;;;;;;5020946;28;20508;-31
2023/10/08 03:37:29;;;;;;;4.97;3.20;;;17.70;57.70;;;;;;5019456;28;20205;-31
2023/10/08 03:40:22;;;;;;;6.93;3.55;;;17.70;57.70;;;;;;5007620;28;20213;-31
2023/10/08 03:42:49;;;;;;;9.27;3.83;;;17.70;57.70;;;;;;5004530;28;20216;-31
2023/10/08 03:48:10;;;;;;;5.78;3.58;;;17.60;57.70;;;;;;5029726;28;20221;-31
2023/10/08 03:50:43;;;;;;;7.10;3.67;;;17.60;57.70;;;;;;5026419;28;20203;-31
2023/10/08 03:53:13;;;;;;;7.72;3.58;;;17.60;57.70;;;;;;5025495;28;20193;-31
2023/10/08 03:55:42;;;;;;;5.22;3.67;;;17.60;57.80;;;;;;5009705;28;20778;-31
2023/10/08 03:58:16;;;;;;;5.97;3.53;;;17.60;57.80;;;;;;5009885;28;20228;-32
2023/10/08 04:00:45;;;;;;;8.90;4.22;;;17.60;57.80;;;;;;5020901;28;20341;-31
2023/10/08 04:03:23;;;;;;;7.13;3.75;;;17.60;57.90;;;;;;5020897;28;20232;-31
2023/10/08 04:06:14;;;;;;;6.55;3.70;;;17.60;57.90;;;;;;5010287;28;20213;-32
2023/10/08 04:08:54;;;;;;;7.90;3.67;;;17.60;57.90;;;;;;5007776;28;20224;-31
2023/10/08 04:11:30;;;;;;;7.20;4.07;;;17.60;58.50;;;;;;4995942;28;20255;-31
2023/10/08 04:14:02;;;;;;;8.20;3.95;;;17.50;57.90;;;;;;5017267;28;20248;-32
2023/10/08 04:16:30;;;;;;;5.80;3.78;;;17.50;58.00;;;;;;5009054;28;20193;-31
2023/10/08 04:19:01;;;;;;;7.47;3.70;;;17.50;57.90;;;;;;5026522;28;20843;-31
2023/10/08 04:21:33;;;;;;;7.65;4.10;;;17.50;58.00;;;;;;5026634;28;20227;-31
2023/10/08 04:24:03;;;;;;;5.80;3.53;;;17.50;58.00;;;;;;5016506;28;20193;-31
2023/10/08 04:26:33;;;;;;;6.22;3.47;;;17.50;58.00;;;;;;5013758;28;20747;-31
2023/10/08 04:29:06;;;;;;;7.93;3.47;;;17.50;58.00;;;;;;5013121;28;20197;-31
2023/10/08 04:31:37;;;;;;;7.03;3.78;;;17.50;58.00;;;;;;5014058;28;20223;-30
2023/10/08 04:34:15;;;;;;;5.90;3.58;;;17.50;58.00;;;;;;5029115;28;20554;-31
2023/10/08 04:36:45;;;;;;;7.30;3.67;;;17.50;58.60;;;;;;5022740;28;20693;-31
2023/10/08 04:39:15;;;;;;;9.50;3.67;;;17.50;58.10;;;;;;5023454;28;20572;-31
2023/10/08 04:41:43;;;;;;;8.43;3.80;;;17.50;58.10;;;;;;5013244;28;20299;-31
2023/10/08 04:44:16;;;;;;;9.57;4.00;;;17.50;58.10;;;;;;5011432;28;20289;-31
2023/10/08 04:52:14;;;;;;;8.65;3.85;;;17.40;58.00;;;;;;5006092;28;20205;-31
2023/10/08 04:54:50;;;;;;;7.32;4.20;;;17.40;58.10;;;;;;5010602;28;20209;-31
2023/10/08 04:57:22;;;;;;;7.07;4.00;;;17.30;58.00;;;;;;5011338;28;20614;-31
2023/10/08 04:59:57;;;;;;;6.20;3.50;;;17.30;58.10;;;;;;5007717;28;20197;-31
2023/10/08 05:02:48;;;;;;;7.45;3.72;;;17.30;58.10;;;;;;5018176;28;20236;-31
2023/10/08 05:15:47;;;;;;;11.27;4.30;;;17.20;58.20;;;;;;5012710;28;20224;-31
2023/10/08 05:18:23;;;;;;;6.82;3.88;;;17.10;58.20;;;;;;5010502;28;20213;-31
2023/10/08 05:23:53;;;;;;;6.40;4.17;;;17.10;58.30;;;;;;5006925;28;20228;-31
2023/10/08 05:26:20;;;;;;;7.43;4.03;;;17.00;58.20;;;;;;5015556;28;20320;-31
2023/10/08 05:29:25;;;;;;;6.50;4.10;;;17.00;58.30;;;;;;5014698;28;20205;-31
2023/10/08 05:32:18;;;;;;;8.98;4.82;;;17.00;58.30;;;;;;5012569;28;20212;-31
2023/10/08 05:34:56;;;;;;;6.00;3.58;;;17.00;58.40;;;;;;5018391;28;20224;-30
2023/10/08 05:37:37;;;;;;;6.80;3.67;;;16.90;58.40;;;;;;5006631;28;20299;-30
2023/10/08 05:40:37;;;;;;;7.57;4.22;;;16.90;58.40;;;;;;5028098;28;20287;-30
2023/10/08 05:43:14;;;;;;;7.22;4.13;;;16.90;58.50;;;;;;5024018;28;20327;-31
2023/10/08 05:45:52;;;;;;;8.10;4.18;;;16.90;58.50;;;;;;5012223;28;20826;-31
2023/10/08 05:48:27;;;;;;;7.90;4.47;;;16.90;58.50;;;;;;5029399;28;20193;-30
2023/10/08 05:51:13;;;;;;;7.68;4.18;;;16.80;58.50;;;;;;5019980;28;20248;-31
2023/10/08 05:53:49;;;;;;;9.93;4.07;;;16.80;58.60;;;;;;5023410;28;20645;-31
2023/10/08 05:56:28;;;;;;;9.50;4.22;;;16.80;58.60;;;;;;5023255;28;20208;-31
2023/10/08 05:59:17;;;;;;;6.20;4.18;;;16.80;58.70;;;;;;5023363;28;20241;-31
2023/10/08 06:01:46;;;;;;;9.90;4.22;;;16.80;58.70;;;;;;5009788;28;20264;-31
2023/10/08 06:04:53;;;;;;;9.10;4.45;;;16.70;58.60;;;;;;5025508;28;20209;-30
2023/10/08 06:07:33;;;;;;;8.20;4.00;;;16.80;58.70;;;;;;5031242;28;20304;-30
2023/10/08 06:10:13;;;;;;;8.15;3.92;;;16.80;58.70;;;;;;5024833;28;20213;-31
2023/10/08 06:12:49;;;;;;;8.05;4.13;;;16.70;58.80;;;;;;5031009;28;20193;-30
2023/10/08 06:15:27;;;;;;;5.95;3.80;;;16.70;58.70;;;;;;5019858;28;20832;-31
2023/10/08 06:18:04;;;;;;;5.47;3.85;;;16.70;58.80;;;;;;5010614;28;20197;-31
2023/10/08 06:20:39;;;;;;;7.60;3.60;;;16.70;58.80;;;;;;5035833;28;20200;-30
2023/10/08 06:23:07;;;;;;;7.18;4.30;;;16.70;58.80;;;;;;5026772;28;20217;-31
2023/10/08 06:25:45;;;;;;;9.00;4.22;;;16.70;58.90;;;;;;5014711;28;20288;-30
2023/10/08 06:28:19;;;;;;;6.32;4.30;;;16.70;58.90;;;;;;5016890;28;20200;-30
2023/10/08 06:30:48;;;;;;;7.07;5.10;;;16.70;58.90;;;;;;5008685;28;20193;-30
2023/10/08 06:33:18;;;;;;;5.65;4.13;;;16.70;58.90;;;;;;5009398;28;21050;-30
2023/10/08 06:38:34;;;;;;;8.10;4.07;;;16.70;59.00;;;;;;5016538;28;20310;-31
2023/10/08 06:44:02;;;;;;;8.80;4.20;;;16.80;59.10;;;;;;5031364;28;20223;-31
2023/10/08 06:46:34;;;;;;;5.40;4.63;;;16.80;59.20;;;;;;5014046;28;20197;-31
2023/10/08 06:49:11;;;;;;;7.22;3.95;;;16.80;59.20;;;;;;5018649;28;20644;-31
2023/10/08 06:51:43;;;;;;;10.52;4.03;;;16.80;59.30;;;;;;4995889;28;20194;-31
2023/10/08 06:54:17;;;;;;;6.20;4.07;;;16.80;59.20;;;;;;5010055;28;20547;-31
2023/10/08 06:56:51;;;;;;;7.15;4.20;;;16.90;59.30;;;;;;5021633;28;20652;-31
2023/10/08 06:59:23;;;;;;;9.70;4.25;;;16.90;59.90;;;;;;5010028;28;20290;-31
2023/10/08 07:01:51;;;;;;;6.93;4.38;;;16.90;59.30;;;;;;5012009;28;20241;-30
2023/10/08 07:04:21;;;;;;;9.90;4.47;;;16.90;59.30;;;;;;5021630;28;20885;-31
2023/10/08 07:06:50;;;;;;;6.25;4.35;;;16.90;59.30;;;;;;5027193;28;20213;-31
2023/10/08 07:11:57;;;;;;;9.15;4.05;;;16.90;59.30;;;;;;5009915;28;20201;-33
2023/10/08 07:14:31;;;;;;;7.25;4.07;;;17.00;59.40;;;;;;5016692;28;20268;-33
2023/10/08 07:17:00;;;;;;;11.50;4.22;;;17.00;59.40;;;;;;5012969;28;20214;-33
2023/10/08 07:19:37;;;;;;;8.77;4.07;;;17.00;59.50;;;;;;5015138;28;20225;-33
2023/10/08 07:22:06;;;;;;;7.93;4.32;;;17.00;59.50;;;;;;5021258;28;20383;-33
2023/10/08 07:24:38;;;;;;;6.38;4.03;;;17.00;59.50;;;;;;5026049;28;20221;-34
2023/10/08 07:27:08;;;;;;;9.70;4.53;;;17.10;59.50;;;;;;5008868;28;20210;-33
2023/10/08 07:29:38;;;;;;;10.00;4.85;;;17.10;59.50;;;;;;5020182;28;20194;-33
2023/10/08 07:32:11;;;;;;;7.75;4.18;;;17.10;59.60;;;;;;5023907;28;20998;-33
2023/10/08 07:34:39;;;;;;;7.85;4.40;;;17.20;59.70;;;;;;5028946;28;20204;-33
2023/10/08 07:37:06;;;;;;;7.68;4.30;;;17.20;59.70;;;;;;5027075;28;20209;-33
2023/10/08 07:39:35;;;;;;;7.75;4.85;;;17.20;59.70;;;;;;5019240;28;20206;-33
2023/10/08 07:42:10;;;;;;;7.20;4.07;;;17.20;59.70;;;;;;5022936;28;20216;-33
2023/10/08 07:44:40;;;;;;;8.25;4.15;;;17.20;59.70;;;;;;5009832;28;20199;-33
2023/10/08 07:47:13;;;;;;;7.45;4.38;;;17.30;59.70;;;;;;5016617;28;20303;-33
2023/10/08 07:49:47;;;;;;;6.53;3.92;;;17.30;59.80;;;;;;5021515;28;20214;-33
2023/10/08 07:52:16;;;;;;;8.60;4.57;;;17.40;59.90;;;;;;5018681;28;20317;-33
2023/10/08 07:54:48;;;;;;;7.55;4.20;;;17.40;59.90;;;;;;5012688;28;20229;-33
2023/10/08 07:57:26;;;;;;;8.60;4.40;;;17.40;59.90;;;;;;5023896;28;20622;-33
2023/10/08 08:00:21;;;;;;;8.82;4.10;;;17.50;59.90;;;;;;5013935;28;20663;-33
2023/10/08 08:02:54;;;;;;;9.20;4.25;;;17.50;59.90;;;;;;5009443;28;20781;-33
2023/10/08 08:05:25;;;;;;;11.80;4.75;;;17.60;59.90;;;;;;5009643;28;20193;-33
2023/10/08 08:07:56;;;;;;;6.82;4.30;;;17.60;60.80;;;;;;5006941;28;20201;-33
2023/10/08 08:10:24;;;;;;;9.50;4.13;;;17.60;60.00;;;;;;5018786;28;20205;-33
2023/10/08 08:12:56;;;;;;;7.93;4.28;;;17.70;60.00;;;;;;5010089;28;20222;-33
2023/10/08 08:15:26;;;;;;;7.20;4.55;;;17.70;60.10;;;;;;5008323;28;20219;-31
2023/10/08 08:17:54;;;;;;;11.30;4.45;;;17.80;60.10;;;;;;5009378;28;20959;-31
2023/10/08 08:20:22;;;;;;;9.13;4.43;;;17.80;60.10;;;;;;5015705;28;20224;-31
2023/10/08 08:22:54;;;;;;;10.82;4.07;;;17.90;60.20;;;;;;5022783;28;21043;-30
2023/10/08 08:25:34;;;;;;;9.90;4.70;;;17.90;60.20;;;;;;5008922;28;20201;-31
2023/10/08 08:28:05;;;;;;;8.77;3.97;;;18.00;60.30;;;;;;5011366;28;20217;-33
2023/10/08 08:30:36;;;;;;;8.07;5.13;;;18.00;60.30;;;;;;5010048;28;20197;-33
2023/10/08 08:33:10;;;;;;;11.45;4.30;;;18.10;60.40;;;;;;5019858;28;20216;-33
2023/10/08 08:35:38;;;;;;;7.75;4.68;;;18.10;60.30;;;;;;5008741;28;20596;-33
2023/10/08 08:38:09;;;;;;;9.25;4.50;;;18.20;60.40;;;;;;5008653;28;20273;-31
2023/10/08 08:40:37;;;;;;;11.82;5.22;;;18.20;60.40;;;;;;5007762;28;20233;-31
2023/10/08 08:43:07;;;;;;;9.48;4.63;;;18.20;60.50;;;;;;5007831;28;20260;-31
2023/10/08 08:45:40;;;;;;;11.32;4.55;;;18.30;60.40;;;;;;5006550;28;20198;-31
2023/10/08 08:48:08;;;;;;;10.32;4.60;;;18.30;61.30;;;;;;5007492;28;20655;-31
2023/10/08 08:50:38;;;;;;;7.53;4.43;;;18.40;60.60;;;;;;5005276;28;20197;-31
2023/10/08 08:53:11;;;;;;;9.88;4.85;;;18.40;60.60;;;;;;5028035;28;20235;-31
2023/10/08 08:55:43;;;;;;;6.85;4.63;;;18.50;60.70;;;;;;5027285;28;20299;-30
2023/10/08 08:58:13;;;;;;;7.60;4.38;;;18.50;60.60;;;;;;5008078;28;20425;-33
2023/10/08 09:00:41;;;;;;;7.90;4.47;;;18.60;60.70;;;;;;5011275;28;20205;-33
2023/10/08 09:03:13;;;;;;;9.43;4.78;;;18.60;60.70;;;;;;5013295;28;20237;-31
2023/10/08 09:05:42;;;;;;;8.75;4.95;;;18.70;60.70;;;;;;5008318;28;20260;-31
2023/10/08 09:08:09;;;;;;;12.13;4.85;;;18.80;60.80;;;;;;5006859;28;20205;-30
2023/10/08 09:10:50;;;;;;;9.60;4.13;;;18.80;60.80;;;;;;5009056;28;20248;-32
2023/10/08 09:13:24;;;;;;;16.42;4.78;;;18.80;60.70;;;;;;5012792;28;20622;-31
2023/10/08 09:15:57;;;;;;;11.60;4.32;;;18.90;60.90;;;;;;5017750;28;20241;-31
2023/10/08 09:18:27;;;;;;;8.43;4.75;;;18.90;60.90;;;;;;5044139;28;20207;-33
2023/10/08 09:20:55;;;;;;;8.48;4.65;;;19.00;60.90;;;;;;5018122;28;20311;-33
2023/10/08 09:23:24;;;;;;;9.38;4.78;;;19.10;61.00;;;;;;5014653;28;20228;-31
2023/10/08 09:26:02;;;;;;;8.05;4.80;;;19.10;61.00;;;;;;5018478;28;20295;-30
2023/10/08 09:28:34;;;;;;;7.90;4.78;;;19.20;61.00;;;;;;5011662;28;20201;-31
2023/10/08 09:31:04;;;;;;;9.48;4.18;;;19.20;61.00;;;;;;5011291;28;20296;-30
2023/10/08 09:33:33;;;;;;;7.85;4.80;;;19.20;61.00;;;;;;5008595;28;20568;-31
2023/10/08 09:36:06;;;;;;;9.93;4.57;;;19.30;61.10;;;;;;5007928;28;20559;-33
2023/10/08 09:38:35;;;;;;;8.20;4.68;;;19.30;61.00;;;;;;5023402;28;20217;-31
2023/10/08 09:41:03;;;;;;;8.50;4.90;;;19.40;61.20;;;;;;5005227;28;20206;-31
2023/10/08 09:43:34;;;;;;;8.82;5.30;;;19.40;61.10;;;;;;5008005;28;20280;-31
2023/10/08 09:46:23;;;;;;;8.95;4.75;;;19.50;61.20;;;;;;5010079;28;20204;-31
2023/10/08 09:48:55;;;;;;;8.90;4.78;;;19.60;61.40;;;;;;5007666;28;20300;-31
2023/10/08 09:51:27;;;;;;;7.75;4.60;;;19.60;61.30;;;;;;5004734;28;20185;-31
2023/10/08 09:54:04;;;;;;;10.85;5.07;;;19.70;61.30;;;;;;5007361;28;20235;-31
2023/10/08 09:56:34;;;;;;;12.57;5.32;;;19.70;61.40;;;;;;5016783;28;20759;-31
2023/10/08 09:59:04;;;;;;;13.25;5.55;;;19.80;61.30;;;;;;5006978;28;20201;-31
2023/10/08 10:01:32;;;;;;;11.70;5.65;;;19.80;61.30;;;;;;5007535;28;20233;-32
2023/10/08 10:03:59;;;;;;;9.90;5.28;;;19.90;61.50;;;;;;5018813;28;20232;-33
2023/10/08 10:06:32;;;;;;;12.38;4.95;;;19.90;61.50;;;;;;5022540;28;20221;-33
2023/10/08 10:09:00;;;;;;;10.50;4.88;;;20.00;61.60;;;;;;5008575;28;20225;-33
2023/10/08 10:11:31;;;;;;;9.40;5.00;;;20.10;61.50;;;;;;5007862;28;20301;-33
2023/10/08 10:14:00;;;;;;;9.10;4.85;;;20.10;61.50;;;;;;5027353;28;20640;-33
2023/10/08 10:16:28;;;;;;;8.40;4.78;;;20.20;61.60;;;;;;5013975;28;20256;-33
2023/10/08 10:19:00;;;;;;;11.73;5.57;;;20.30;61.60;;;;;;5012352;28;20200;-33
2023/10/08 10:21:31;;;;;;;9.65;5.88;;;20.30;61.70;;;;;;5019526;28;20205;-33
2023/10/08 10:24:02;;;;;;;12.43;5.47;;;20.40;61.70;;;;;;5013558;28;20229;-33
2023/10/08 10:26:40;;;;;;;14.07;6.05;;;20.40;61.70;;;;;;5024275;28;20667;-33
2023/10/08 10:29:19;;;;;;;16.30;6.07;;;20.50;61.80;;;;;;5010783;28;20201;-33
2023/10/08 10:31:53;;;;;;;14.70;6.45;;;20.60;61.90;;;;;;5005590;28;20648;-33
2023/10/08 10:34:34;;;;;;;11.73;6.25;;;20.70;61.70;;;;;;5005757;28;20209;-33
2023/10/08 10:37:18;;;;;;;17.88;6.53;;;20.70;61.80;;;;;;5007760;28;20210;-33
2023/10/08 10:39:59;;;;;;;17.17;6.50;;;20.80;61.80;;;;;;5020164;28;20651;-31
2023/10/08 10:42:28;;;;;;;17.52;6.78;;;20.90;61.90;;;;;;5012056;28;20321;-31
2023/10/08 10:45:09;;;;;;;14.48;6.53;;;20.90;61.90;;;;;;5018031;28;20650;-31
2023/10/08 10:47:45;;;;;;;16.60;6.40;;;21.00;61.80;;;;;;5029749;28;20217;-31
2023/10/08 10:50:31;;;;;;;12.15;6.13;;;21.00;61.80;;;;;;5023758;28;20284;-31
2023/10/08 10:53:09;;;;;;;18.02;6.75;;;21.10;61.80;;;;;;5024572;28;20202;-31
2023/10/08 10:55:38;;;;;;;18.48;6.47;;;21.10;61.80;;;;;;5019629;28;20204;-31
2023/10/08 10:58:11;;;;;;;11.63;5.90;;;21.20;61.90;;;;;;5026897;28;20220;-31
2023/10/08 11:03:25;;;;;;;12.15;6.20;;;21.30;61.90;;;;;;5010106;28;20614;-31
2023/10/08 11:06:06;;;;;;;12.13;5.75;;;21.30;61.80;;;;;;5022278;28;20556;-31
2023/10/08 11:08:36;;;;;;;11.18;5.75;;;21.30;61.80;;;;;;5029320;28;20205;-31
2023/10/08 11:11:06;;;;;;;12.05;5.65;;;21.40;61.80;;;;;;5014849;28;20204;-31
2023/10/08 11:13:38;;;;;;;11.30;5.65;;;21.40;61.90;;;;;;5020288;28;20236;-31
2023/10/08 11:16:09;;;;;;;11.00;6.15;;;21.50;61.90;;;;;;5013617;28;20746;-31
2023/10/08 11:18:44;;;;;;;12.23;5.70;;;21.50;61.90;;;;;;5029246;28;20200;-32
2023/10/08 11:21:15;;;;;;;11.43;5.47;;;21.50;61.90;;;;;;5042963;28;20219;-32
2023/10/08 11:23:58;;;;;;;17.77;5.45;;;21.60;61.90;;;;;;5042500;28;20304;-33
2023/10/08 11:26:38;;;;;;;10.15;5.45;;;21.60;61.90;;;;;;5021036;28;20214;-32
2023/10/08 11:29:14;;;;;;;13.18;5.60;;;21.70;61.90;;;;;;5017688;28;20205;-32
2023/10/08 11:31:46;;;;;;;11.10;4.88;;;21.70;61.90;;;;;;5024815;28;20197;-32
2023/10/08 11:34:23;;;;;;;16.23;5.97;;;21.80;62.00;;;;;;5009875;28;20565;-30
2023/10/08 11:36:55;;;;;;;10.77;5.68;;;21.90;62.00;;;;;;5032976;28;20196;-31
2023/10/08 11:39:23;;;;;;;9.00;4.70;;;21.90;61.90;;;;;;5033795;28;20211;-31
2023/10/08 11:42:22;;;;;;;13.25;6.78;;;21.90;62.60;;;;;;5029528;28;20282;-31
2023/10/08 11:44:52;;;;;;;12.20;5.70;;;22.00;61.90;;;;;;5021859;28;20213;-31
2023/10/08 11:47:22;;;;;;;11.45;5.40;;;22.00;61.80;;;;;;5021748;28;20229;-31
2023/10/08 11:50:08;;;;;;;10.90;5.63;;;22.10;61.90;;;;;;5015353;28;20201;-31
2023/10/08 11:52:42;;;;;;;13.35;5.88;;;22.10;61.90;;;;;;5019020;28;20678;-31
2023/10/08 11:55:10;;;;;;;9.65;5.15;;;22.20;61.90;;;;;;5022899;28;20260;-31
2023/10/08 11:57:45;;;;;;;13.43;5.57;;;22.20;61.90;;;;;;5038313;28;20279;-31
2023/10/08 12:00:20;;;;;;;10.57;5.28;;;22.20;61.80;;;;;;5011085;28;20868;-31
2023/10/08 12:03:01;;;;;;;11.65;5.78;;;22.20;61.80;;;;;;5010955;28;20659;-32
2023/10/08 12:05:29;;;;;;;10.20;5.10;;;22.30;61.90;;;;;;5027259;28;20727;-31
2023/10/08 12:08:00;;;;;;;13.20;5.65;;;22.40;61.90;;;;;;5037100;28;20311;-32
2023/10/08 12:10:34;;;;;;;11.10;5.78;;;22.40;61.80;;;;;;5040426;28;20201;-31
2023/10/08 12:13:05;;;;;;;10.73;5.63;;;22.40;61.80;;;;;;5008062;28;20255;-31
2023/10/08 12:15:38;;;;;;;14.73;6.10;;;22.40;61.80;;;;;;5022069;28;20216;-31
2023/10/08 12:18:11;;;;;;;10.40;5.25;;;22.40;61.80;;;;;;5019851;28;20200;-32
2023/10/08 12:20:38;;;;;;;12.50;5.72;;;22.50;61.90;;;;;;5006718;28;20625;-32
2023/10/08 12:23:06;;;;;;;10.63;5.45;;;22.50;61.80;;;;;;5024633;28;20292;-32
2023/10/08 12:25:37;;;;;;;13.32;5.25;;;22.60;61.90;;;;;;5011946;28;20312;-31
2023/10/08 12:28:06;;;;;;;9.27;5.07;;;22.60;61.90;;;;;;5010121;28;20202;-31
2023/10/08 12:30:41;;;;;;;14.10;6.03;;;22.70;61.90;;;;;;5021140;28;20224;-32
2023/10/08 12:33:15;;;;;;;15.07;6.40;;;22.70;61.80;;;;;;5008030;28;20221;-32
2023/10/08 12:35:44;;;;;;;14.02;5.95;;;22.80;61.80;;;;;;5014310;28;20213;-33
2023/10/08 12:38:13;;;;;;;9.93;5.75;;;22.80;61.70;;;;;;5012574;28;20205;-32
2023/10/08 12:40:52;;;;;;;10.63;5.20;;;22.80;61.70;;;;;;5010293;28;20201;-33
2023/10/08 12:43:27;;;;;;;10.57;6.00;;;22.80;61.60;;;;;;5017467;28;20209;-32
2023/10/08 12:45:56;;;;;;;13.35;5.82;;;22.80;61.70;;;;;;5016284;28;20524;-33
2023/10/08 12:48:30;;;;;;;11.57;6.05;;;22.90;61.70;;;;;;5006942;28;20201;-33
2023/10/08 12:51:00;;;;;;;9.35;5.25;;;22.90;61.60;;;;;;5021674;28;20244;-32
2023/10/08 12:53:38;;;;;;;11.13;5.93;;;22.90;61.60;;;;;;5010753;28;20229;-32
2023/10/08 12:56:15;;;;;;;10.95;5.50;;;23.00;61.60;;;;;;5019529;28;20243;-32
2023/10/08 12:58:47;;;;;;;13.30;5.90;;;23.10;61.70;;;;;;5026399;28;20222;-32
2023/10/08 13:01:19;;;;;;;12.45;5.53;;;23.10;61.60;;;;;;5017698;28;20248;-32
2023/10/08 13:03:49;;;;;;;13.98;5.80;;;23.10;61.60;;;;;;5013605;28;20230;-33
2023/10/08 13:06:22;;;;;;;11.40;5.28;;;23.20;61.60;;;;;;5017315;28;20974;-32
2023/10/08 13:08:53;;;;;;;13.35;5.70;;;23.20;61.60;;;;;;5028637;28;20246;-32
2023/10/08 13:11:24;;;;;;;12.30;5.55;;;23.20;61.60;;;;;;5026223;28;20284;-32
2023/10/08 13:13:53;;;;;;;9.75;5.50;;;23.30;61.70;;;;;;5020111;28;20292;-32
2023/10/08 13:16:23;;;;;;;8.35;5.28;;;23.30;61.60;;;;;;5024500;28;20752;-33
2023/10/08 13:18:52;;;;;;;12.65;5.95;;;23.40;61.60;;;;;;5024916;28;20784;-33
2023/10/08 13:21:19;;;;;;;12.27;5.93;;;23.40;61.50;;;;;;5026018;28;20213;-32
2023/10/08 13:23:51;;;;;;;13.80;6.13;;;23.40;61.40;;;;;;5023649;28;20237;-32
2023/10/08 13:26:22;;;;;;;11.77;5.65;;;23.50;61.50;;;;;;5015723;28;20229;-32
2023/10/08 13:28:50;;;;;;;7.88;4.55;;;23.50;61.40;;;;;;5006791;28;20293;-32
2023/10/08 13:31:19;;;;;;;9.40;5.47;;;23.50;61.40;;;;;;5003791;28;20233;-32
2023/10/08 13:33:52;;;;;;;12.77;5.85;;;23.60;61.50;;;;;;5008850;28;20570;-30
2023/10/08 13:36:19;;;;;;;11.48;6.03;;;23.60;61.40;;;;;;5018655;28;20300;-30
2023/10/08 13:38:49;;;;;;;10.90;5.68;;;23.70;61.50;;;;;;5014025;28;20586;-30
2023/10/08 13:41:21;;;;;;;11.82;5.25;;;23.70;61.40;;;;;;5015777;28;20573;-30
2023/10/08 13:43:51;;;;;;;11.55;5.95;;;23.70;61.40;;;;;;5007948;28;20304;-30
2023/10/08 13:46:22;;;;;;;13.32;5.78;;;23.70;61.30;;;;;;5021088;28;20304;-30
2023/10/08 13:48:50;;;;;;;11.70;5.70;;;23.80;61.30;;;;;;5009601;28;20703;-30
2023/10/08 13:51:25;;;;;;;12.48;6.30;;;23.80;61.30;;;;;;5016095;28;20749;-30
2023/10/08 13:53:59;;;;;;;14.07;6.15;;;23.80;61.20;;;;;;5024497;28;20321;-30
2023/10/08 13:56:37;;;;;;;10.35;5.97;;;23.80;61.00;;;;;;5013585;28;20212;-30
2023/10/08 13:59:13;;;;;;;8.95;5.43;;;23.80;61.00;;;;;;5009602;28;20263;-30